Pagrindinis puslapis
METAR-TAF:

METAR-TAF

Oro uostai :

Tallahassee Regional Airport

Talahasis, Florida, Jungtinės Amerikos Valstijos

platuma: 30-23-35N, ilguma: 084-21-12W, Aukštis: 24 m

Dabartinis oras

Ataskaita buvo paskelbta 32 minutes, ne 08:53 UTC
Ramus vėjas
Temperatūra 23°C
Drėgmė 89%
Slėgis 1011 hPa
Matomumas: 16.1 km
Giedras dangus

METAR: KTLH 120853Z AUTO 00000KT 10SM CLR 23/21 A2986 RMK AO2 SLP110 T02280211 56013

Laikas: 05:25 (09:25 UTC)

Prognozė

Ataskaita buvo paskelbta 4 valandos ir 5 minutes, ne 05:20 UTC
Prognozė galioja nuo 12 metu 06 UTC su 13 metu 06 UTC
Vėjas 6 kt iš Šiaurės/Šiaurės Vakarų
Matomumas: 10 km
Giedras dangus

TAF: KTLH 120520Z 1206/1306 33006KT P6SM SKC

Orai ataskaitas ir orų prognozės (METAR, TAF).

turimą stotys yra geltonos ir raudonos taškus žemėlapyje.

Perkelti pele per norėdami pamatyti stoties vardą.

Tada spustelėkite, norėdami matyti oro stebėjimo ir prognozės.

Norėdami pakeisti žemėlapį: spustelėkite ant žalios mygtukų su juodo kryžiaus žemyn,; žalią mygtuką su brūkšneliu, jei norite nutolinti; arba žalių rodyklių gretimoms žemėlapius.


METAR-TAF: